sensor_id;sensor_type;location;lat;lon;timestamp;temperature;humidity
18091;DHT22;9172;49.948;9.208;2023-02-16T00:01:29;0.70;99.90
18091;DHT22;9172;49.948;9.208;2023-02-16T00:03:58;0.70;99.90
18091;DHT22;9172;49.948;9.208;2023-02-16T00:06:28;0.90;99.90
18091;DHT22;9172;49.948;9.208;2023-02-16T00:08:57;0.90;99.90
18091;DHT22;9172;49.948;9.208;2023-02-16T00:11:30;1.00;99.90
18091;DHT22;9172;49.948;9.208;2023-02-16T00:14:19;1.00;99.90
18091;DHT22;9172;49.948;9.208;2023-02-16T00:16:49;1.10;99.90
18091;DHT22;9172;49.948;9.208;2023-02-16T00:19:20;1.00;99.90
18091;DHT22;9172;49.948;9.208;2023-02-16T00:21:50;0.70;99.90
18091;DHT22;9172;49.948;9.208;2023-02-16T00:24:21;0.40;99.90
18091;DHT22;9172;49.948;9.208;2023-02-16T00:26:50;0.20;99.90
18091;DHT22;9172;49.948;9.208;2023-02-16T00:29:25;0.20;99.90
18091;DHT22;9172;49.948;9.208;2023-02-16T00:31:55;0.20;99.90
18091;DHT22;9172;49.948;9.208;2023-02-16T00:34:29;0.10;99.90
18091;DHT22;9172;49.948;9.208;2023-02-16T00:37:00;0.00;99.90
18091;DHT22;9172;49.948;9.208;2023-02-16T00:39:29;0.00;99.90
18091;DHT22;9172;49.948;9.208;2023-02-16T00:42:00;0.30;99.90
18091;DHT22;9172;49.948;9.208;2023-02-16T00:44:33;0.40;99.90
18091;DHT22;9172;49.948;9.208;2023-02-16T00:47:14;0.50;99.90
18091;DHT22;9172;49.948;9.208;2023-02-16T00:49:34;0.60;99.90
18091;DHT22;9172;49.948;9.208;2023-02-16T00:52:08;0.60;99.90
18091;DHT22;9172;49.948;9.208;2023-02-16T00:54:38;0.60;99.90
18091;DHT22;9172;49.948;9.208;2023-02-16T00:57:08;0.60;99.90
18091;DHT22;9172;49.948;9.208;2023-02-16T00:59:39;0.60;99.90
18091;DHT22;9172;49.948;9.208;2023-02-16T01:02:09;0.50;99.90
18091;DHT22;9172;49.948;9.208;2023-02-16T01:04:37;0.30;99.90
18091;DHT22;9172;49.948;9.208;2023-02-16T01:07:10;0.30;99.90
18091;DHT22;9172;49.948;9.208;2023-02-16T01:09:57;0.30;99.90
18091;DHT22;9172;49.948;9.208;2023-02-16T01:12:44;0.10;99.90
18091;DHT22;9172;49.948;9.208;2023-02-16T01:15:15;0.00;99.90
18091;DHT22;9172;49.948;9.208;2023-02-16T01:17:45;0.10;99.90
18091;DHT22;9172;49.948;9.208;2023-02-16T01:20:16;0.10;99.90
18091;DHT22;9172;49.948;9.208;2023-02-16T01:22:45;0.30;99.90
18091;DHT22;9172;49.948;9.208;2023-02-16T01:25:14;0.40;99.90
18091;DHT22;9172;49.948;9.208;2023-02-16T01:27:44;0.50;99.90
18091;DHT22;9172;49.948;9.208;2023-02-16T01:30:15;0.50;99.90
18091;DHT22;9172;49.948;9.208;2023-02-16T01:32:44;0.60;99.90
18091;DHT22;9172;49.948;9.208;2023-02-16T01:35:15;0.60;99.90
18091;DHT22;9172;49.948;9.208;2023-02-16T01:37:44;0.70;99.90
18091;DHT22;9172;49.948;9.208;2023-02-16T01:43:05;0.70;99.90
18091;DHT22;9172;49.948;9.208;2023-02-16T01:45:35;0.70;99.90
18091;DHT22;9172;49.948;9.208;2023-02-16T01:48:08;0.70;99.90
18091;DHT22;9172;49.948;9.208;2023-02-16T01:50:42;0.70;99.90
18091;DHT22;9172;49.948;9.208;2023-02-16T01:53:16;0.60;99.90
18091;DHT22;9172;49.948;9.208;2023-02-16T01:55:48;0.60;99.90
18091;DHT22;9172;49.948;9.208;2023-02-16T01:58:22;0.60;99.90
18091;DHT22;9172;49.948;9.208;2023-02-16T02:01:27;0.50;99.90
18091;DHT22;9172;49.948;9.208;2023-02-16T02:03:56;0.20;99.90
18091;DHT22;9172;49.948;9.208;2023-02-16T02:06:51;0.10;99.90
18091;DHT22;9172;49.948;9.208;2023-02-16T02:09:22;0.00;99.90
18091;DHT22;9172;49.948;9.208;2023-02-16T02:11:54;0.00;99.90
18091;DHT22;9172;49.948;9.208;2023-02-16T02:14:26;0.10;99.90
18091;DHT22;9172;49.948;9.208;2023-02-16T02:16:57;0.20;99.90
18091;DHT22;9172;49.948;9.208;2023-02-16T02:19:26;0.30;99.90
18091;DHT22;9172;49.948;9.208;2023-02-16T02:25:17;0.30;99.90
18091;DHT22;9172;49.948;9.208;2023-02-16T02:27:48;0.40;99.90
18091;DHT22;9172;49.948;9.208;2023-02-16T02:30:42;0.40;99.90
18091;DHT22;9172;49.948;9.208;2023-02-16T02:33:19;0.30;99.90
18091;DHT22;9172;49.948;9.208;2023-02-16T02:35:53;0.30;99.90
18091;DHT22;9172;49.948;9.208;2023-02-16T02:38:24;0.30;99.90
18091;DHT22;9172;49.948;9.208;2023-02-16T02:40:58;0.20;99.90
18091;DHT22;9172;49.948;9.208;2023-02-16T02:43:30;-0.10;99.90
18091;DHT22;9172;49.948;9.208;2023-02-16T02:46:02;-0.50;99.90
18091;DHT22;9172;49.948;9.208;2023-02-16T02:48:32;-0.70;99.90
18091;DHT22;9172;49.948;9.208;2023-02-16T02:51:07;-0.70;99.90
18091;DHT22;9172;49.948;9.208;2023-02-16T02:53:53;-0.60;99.90
18091;DHT22;9172;49.948;9.208;2023-02-16T02:56:44;-0.40;99.90
18091;DHT22;9172;49.948;9.208;2023-02-16T03:02:25;-0.30;99.90
18091;DHT22;9172;49.948;9.208;2023-02-16T03:04:55;-0.30;99.90
18091;DHT22;9172;49.948;9.208;2023-02-16T03:07:25;-0.20;99.90
18091;DHT22;9172;49.948;9.208;2023-02-16T03:10:15;0.00;99.90
18091;DHT22;9172;49.948;9.208;2023-02-16T03:13:05;0.10;99.90
18091;DHT22;9172;49.948;9.208;2023-02-16T03:15:37;0.20;99.90
18091;DHT22;9172;49.948;9.208;2023-02-16T03:18:07;0.30;99.90
18091;DHT22;9172;49.948;9.208;2023-02-16T03:20:56;0.20;99.90
18091;DHT22;9172;49.948;9.208;2023-02-16T03:23:46;0.20;99.90
18091;DHT22;9172;49.948;9.208;2023-02-16T03:26:34;0.20;99.90
18091;DHT22;9172;49.948;9.208;2023-02-16T03:29:21;0.30;99.90
18091;DHT22;9172;49.948;9.208;2023-02-16T03:31:52;0.30;99.90
18091;DHT22;9172;49.948;9.208;2023-02-16T03:34:24;0.30;99.90
18091;DHT22;9172;49.948;9.208;2023-02-16T03:36:55;0.40;99.90
18091;DHT22;9172;49.948;9.208;2023-02-16T03:39:26;0.40;99.90
18091;DHT22;9172;49.948;9.208;2023-02-16T03:41:56;0.20;99.90
18091;DHT22;9172;49.948;9.208;2023-02-16T03:44:25;0.20;99.90
18091;DHT22;9172;49.948;9.208;2023-02-16T03:46:53;0.30;99.90
18091;DHT22;9172;49.948;9.208;2023-02-16T03:49:23;0.30;99.90
18091;DHT22;9172;49.948;9.208;2023-02-16T03:51:52;0.40;99.90
18091;DHT22;9172;49.948;9.208;2023-02-16T03:54:21;0.40;99.90
18091;DHT22;9172;49.948;9.208;2023-02-16T03:56:50;0.40;99.90
18091;DHT22;9172;49.948;9.208;2023-02-16T03:59:20;0.30;99.90
18091;DHT22;9172;49.948;9.208;2023-02-16T04:01:49;0.30;99.90
18091;DHT22;9172;49.948;9.208;2023-02-16T04:04:18;0.20;99.90
18091;DHT22;9172;49.948;9.208;2023-02-16T04:06:47;0.10;99.90
18091;DHT22;9172;49.948;9.208;2023-02-16T04:09:16;-0.20;99.90
18091;DHT22;9172;49.948;9.208;2023-02-16T04:11:46;-0.20;99.90
18091;DHT22;9172;49.948;9.208;2023-02-16T04:14:33;-0.20;99.90
18091;DHT22;9172;49.948;9.208;2023-02-16T04:17:03;0.00;99.90
18091;DHT22;9172;49.948;9.208;2023-02-16T04:19:31;0.00;99.90
18091;DHT22;9172;49.948;9.208;2023-02-16T04:22:00;0.00;99.90
18091;DHT22;9172;49.948;9.208;2023-02-16T04:24:28;0.00;99.90
18091;DHT22;9172;49.948;9.208;2023-02-16T04:26:57;0.10;99.90
18091;DHT22;9172;49.948;9.208;2023-02-16T04:29:26;0.10;99.90
18091;DHT22;9172;49.948;9.208;2023-02-16T04:31:56;0.00;99.90
18091;DHT22;9172;49.948;9.208;2023-02-16T04:34:26;0.00;99.90
18091;DHT22;9172;49.948;9.208;2023-02-16T04:36:55;-0.10;99.90
18091;DHT22;9172;49.948;9.208;2023-02-16T04:39:25;-0.10;99.90
18091;DHT22;9172;49.948;9.208;2023-02-16T04:41:53;-0.20;99.90
18091;DHT22;9172;49.948;9.208;2023-02-16T04:44:23;-0.30;99.90
18091;DHT22;9172;49.948;9.208;2023-02-16T04:46:52;-0.30;99.90
18091;DHT22;9172;49.948;9.208;2023-02-16T04:49:21;-0.20;99.90
18091;DHT22;9172;49.948;9.208;2023-02-16T04:51:50;-0.10;99.90
18091;DHT22;9172;49.948;9.208;2023-02-16T04:54:18;-0.10;99.90
18091;DHT22;9172;49.948;9.208;2023-02-16T04:56:47;0.00;99.90
18091;DHT22;9172;49.948;9.208;2023-02-16T04:59:17;-0.10;99.90
18091;DHT22;9172;49.948;9.208;2023-02-16T05:01:45;0.00;99.90
18091;DHT22;9172;49.948;9.208;2023-02-16T05:04:15;-0.10;99.90
18091;DHT22;9172;49.948;9.208;2023-02-16T05:06:44;-0.10;99.90
18091;DHT22;9172;49.948;9.208;2023-02-16T05:09:12;-0.10;99.90
18091;DHT22;9172;49.948;9.208;2023-02-16T05:11:41;-0.10;99.90
18091;DHT22;9172;49.948;9.208;2023-02-16T05:14:32;-0.40;99.90
18091;DHT22;9172;49.948;9.208;2023-02-16T05:17:09;-0.70;99.90
18091;DHT22;9172;49.948;9.208;2023-02-16T05:19:38;-0.70;99.90
18091;DHT22;9172;49.948;9.208;2023-02-16T05:22:08;-0.60;99.90
18091;DHT22;9172;49.948;9.208;2023-02-16T05:24:37;-0.50;99.90
18091;DHT22;9172;49.948;9.208;2023-02-16T05:27:07;-0.50;99.90
18091;DHT22;9172;49.948;9.208;2023-02-16T05:29:36;-0.60;99.90
18091;DHT22;9172;49.948;9.208;2023-02-16T05:32:06;-0.70;99.90
18091;DHT22;9172;49.948;9.208;2023-02-16T05:34:35;-1.00;99.90
18091;DHT22;9172;49.948;9.208;2023-02-16T05:37:04;-0.90;99.90
18091;DHT22;9172;49.948;9.208;2023-02-16T05:39:33;-0.80;99.90
18091;DHT22;9172;49.948;9.208;2023-02-16T05:42:02;-0.70;99.90
18091;DHT22;9172;49.948;9.208;2023-02-16T05:44:31;-0.50;99.90
18091;DHT22;9172;49.948;9.208;2023-02-16T05:46:59;-0.40;99.90
18091;DHT22;9172;49.948;9.208;2023-02-16T05:49:28;-0.30;99.90
18091;DHT22;9172;49.948;9.208;2023-02-16T05:51:56;-0.30;99.90
18091;DHT22;9172;49.948;9.208;2023-02-16T05:54:26;-0.20;99.90
18091;DHT22;9172;49.948;9.208;2023-02-16T05:56:55;-0.20;99.90
18091;DHT22;9172;49.948;9.208;2023-02-16T05:59:24;-0.10;99.90
18091;DHT22;9172;49.948;9.208;2023-02-16T06:01:53;-0.10;99.90
18091;DHT22;9172;49.948;9.208;2023-02-16T06:04:22;-0.10;99.90
18091;DHT22;9172;49.948;9.208;2023-02-16T06:06:51;-0.10;99.90
18091;DHT22;9172;49.948;9.208;2023-02-16T06:09:20;-0.30;99.90
18091;DHT22;9172;49.948;9.208;2023-02-16T06:11:49;-0.70;99.90
18091;DHT22;9172;49.948;9.208;2023-02-16T06:14:19;-0.90;99.90
18091;DHT22;9172;49.948;9.208;2023-02-16T06:16:49;-1.00;99.90
18091;DHT22;9172;49.948;9.208;2023-02-16T06:19:20;-0.90;99.90
18091;DHT22;9172;49.948;9.208;2023-02-16T06:21:48;-0.80;99.90
18091;DHT22;9172;49.948;9.208;2023-02-16T06:24:17;-0.70;99.90
18091;DHT22;9172;49.948;9.208;2023-02-16T06:26:45;-0.70;99.90
18091;DHT22;9172;49.948;9.208;2023-02-16T06:29:14;-0.60;99.90
18091;DHT22;9172;49.948;9.208;2023-02-16T06:31:42;-0.60;99.90
18091;DHT22;9172;49.948;9.208;2023-02-16T06:34:12;-1.00;99.90
18091;DHT22;9172;49.948;9.208;2023-02-16T06:36:40;-1.20;99.90
18091;DHT22;9172;49.948;9.208;2023-02-16T06:39:10;-1.20;99.90
18091;DHT22;9172;49.948;9.208;2023-02-16T06:41:38;-1.10;99.90
18091;DHT22;9172;49.948;9.208;2023-02-16T06:44:08;-0.90;99.90
18091;DHT22;9172;49.948;9.208;2023-02-16T06:46:38;-0.90;99.90
18091;DHT22;9172;49.948;9.208;2023-02-16T06:49:09;-1.10;99.90
18091;DHT22;9172;49.948;9.208;2023-02-16T06:51:38;-1.20;99.90
18091;DHT22;9172;49.948;9.208;2023-02-16T06:54:06;-1.20;99.90
18091;DHT22;9172;49.948;9.208;2023-02-16T06:56:35;-1.10;99.90
18091;DHT22;9172;49.948;9.208;2023-02-16T06:59:04;-1.00;99.90
18091;DHT22;9172;49.948;9.208;2023-02-16T07:01:32;-0.90;99.90
18091;DHT22;9172;49.948;9.208;2023-02-16T07:04:02;-0.80;99.90
18091;DHT22;9172;49.948;9.208;2023-02-16T07:06:30;-0.80;99.90
18091;DHT22;9172;49.948;9.208;2023-02-16T07:08:59;-1.00;99.90
18091;DHT22;9172;49.948;9.208;2023-02-16T07:11:28;-1.00;99.90
18091;DHT22;9172;49.948;9.208;2023-02-16T07:13:57;-1.00;99.90
18091;DHT22;9172;49.948;9.208;2023-02-16T07:16:29;-0.80;99.90
18091;DHT22;9172;49.948;9.208;2023-02-16T07:18:57;-0.70;99.90
18091;DHT22;9172;49.948;9.208;2023-02-16T07:21:28;-0.60;99.90
18091;DHT22;9172;49.948;9.208;2023-02-16T07:23:57;-0.50;99.90
18091;DHT22;9172;49.948;9.208;2023-02-16T07:26:26;-0.50;99.90
18091;DHT22;9172;49.948;9.208;2023-02-16T07:28:55;-0.40;99.90
18091;DHT22;9172;49.948;9.208;2023-02-16T07:31:24;-0.40;99.90
18091;DHT22;9172;49.948;9.208;2023-02-16T07:33:53;-0.30;99.90
18091;DHT22;9172;49.948;9.208;2023-02-16T07:36:22;-0.20;99.90
18091;DHT22;9172;49.948;9.208;2023-02-16T07:38:51;-0.10;99.90
18091;DHT22;9172;49.948;9.208;2023-02-16T07:41:21;-0.10;99.90
18091;DHT22;9172;49.948;9.208;2023-02-16T07:43:52;0.00;99.90
18091;DHT22;9172;49.948;9.208;2023-02-16T07:46:21;0.00;99.90
18091;DHT22;9172;49.948;9.208;2023-02-16T07:48:49;0.00;99.90
18091;DHT22;9172;49.948;9.208;2023-02-16T07:51:22;0.00;99.90
18091;DHT22;9172;49.948;9.208;2023-02-16T07:53:51;0.10;99.90
18091;DHT22;9172;49.948;9.208;2023-02-16T07:56:21;0.20;99.90
18091;DHT22;9172;49.948;9.208;2023-02-16T07:58:51;0.20;99.90
18091;DHT22;9172;49.948;9.208;2023-02-16T08:01:20;0.30;99.90
18091;DHT22;9172;49.948;9.208;2023-02-16T08:03:51;0.30;99.90
18091;DHT22;9172;49.948;9.208;2023-02-16T08:06:21;0.40;99.90
18091;DHT22;9172;49.948;9.208;2023-02-16T08:08:50;0.30;99.90
18091;DHT22;9172;49.948;9.208;2023-02-16T08:11:20;0.10;99.90
18091;DHT22;9172;49.948;9.208;2023-02-16T08:13:50;0.00;99.90
18091;DHT22;9172;49.948;9.208;2023-02-16T08:16:21;0.10;99.90
18091;DHT22;9172;49.948;9.208;2023-02-16T08:18:51;0.10;99.90
18091;DHT22;9172;49.948;9.208;2023-02-16T08:21:22;0.20;99.90
18091;DHT22;9172;49.948;9.208;2023-02-16T08:23:54;0.40;99.90
18091;DHT22;9172;49.948;9.208;2023-02-16T08:26:24;0.50;99.90
18091;DHT22;9172;49.948;9.208;2023-02-16T08:28:55;0.40;99.90
18091;DHT22;9172;49.948;9.208;2023-02-16T08:31:26;0.50;99.90
18091;DHT22;9172;49.948;9.208;2023-02-16T08:33:58;0.60;99.90
18091;DHT22;9172;49.948;9.208;2023-02-16T08:36:29;0.60;99.90
18091;DHT22;9172;49.948;9.208;2023-02-16T08:38:59;0.50;99.90
18091;DHT22;9172;49.948;9.208;2023-02-16T08:41:30;0.50;99.90
18091;DHT22;9172;49.948;9.208;2023-02-16T08:44:00;0.60;99.90
18091;DHT22;9172;49.948;9.208;2023-02-16T08:46:30;0.60;99.90
18091;DHT22;9172;49.948;9.208;2023-02-16T08:48:59;0.70;99.90
18091;DHT22;9172;49.948;9.208;2023-02-16T08:51:29;0.70;99.90
18091;DHT22;9172;49.948;9.208;2023-02-16T08:53:59;0.70;99.90
18091;DHT22;9172;49.948;9.208;2023-02-16T08:56:28;0.80;99.90
18091;DHT22;9172;49.948;9.208;2023-02-16T08:58:58;0.90;99.90
18091;DHT22;9172;49.948;9.208;2023-02-16T09:01:27;0.90;99.90
18091;DHT22;9172;49.948;9.208;2023-02-16T09:03:56;0.90;99.90
18091;DHT22;9172;49.948;9.208;2023-02-16T09:06:26;1.00;99.90
18091;DHT22;9172;49.948;9.208;2023-02-16T09:08:55;1.00;99.90
18091;DHT22;9172;49.948;9.208;2023-02-16T09:11:25;1.10;99.90
18091;DHT22;9172;49.948;9.208;2023-02-16T09:13:55;1.10;99.90
18091;DHT22;9172;49.948;9.208;2023-02-16T09:16:24;1.20;99.90
18091;DHT22;9172;49.948;9.208;2023-02-16T09:18:55;1.20;99.90
18091;DHT22;9172;49.948;9.208;2023-02-16T09:21:25;1.30;99.90
18091;DHT22;9172;49.948;9.208;2023-02-16T09:23:56;1.50;99.90
18091;DHT22;9172;49.948;9.208;2023-02-16T09:26:26;1.60;99.90
18091;DHT22;9172;49.948;9.208;2023-02-16T09:28:55;1.70;99.90
18091;DHT22;9172;49.948;9.208;2023-02-16T09:31:26;1.70;99.90
18091;DHT22;9172;49.948;9.208;2023-02-16T09:34:00;1.80;99.90
18091;DHT22;9172;49.948;9.208;2023-02-16T09:36:29;1.80;99.90
18091;DHT22;9172;49.948;9.208;2023-02-16T09:38:59;1.80;99.90
18091;DHT22;9172;49.948;9.208;2023-02-16T09:44:18;1.90;99.90
18091;DHT22;9172;49.948;9.208;2023-02-16T09:46:47;1.90;99.90
18091;DHT22;9172;49.948;9.208;2023-02-16T09:49:21;2.00;99.90
18091;DHT22;9172;49.948;9.208;2023-02-16T09:51:57;1.90;99.90
18091;DHT22;9172;49.948;9.208;2023-02-16T09:54:31;2.00;99.90
18091;DHT22;9172;49.948;9.208;2023-02-16T09:57:03;2.00;99.90
18091;DHT22;9172;49.948;9.208;2023-02-16T09:59:40;2.10;99.90
18091;DHT22;9172;49.948;9.208;2023-02-16T10:02:24;2.20;99.90
18091;DHT22;9172;49.948;9.208;2023-02-16T10:04:58;2.20;99.90
18091;DHT22;9172;49.948;9.208;2023-02-16T10:07:28;2.30;99.90
18091;DHT22;9172;49.948;9.208;2023-02-16T10:09:58;2.30;99.90
18091;DHT22;9172;49.948;9.208;2023-02-16T10:12:35;2.40;99.90
18091;DHT22;9172;49.948;9.208;2023-02-16T10:15:06;2.50;99.90
18091;DHT22;9172;49.948;9.208;2023-02-16T10:17:40;2.50;99.90
18091;DHT22;9172;49.948;9.208;2023-02-16T10:20:11;2.50;99.90
18091;DHT22;9172;49.948;9.208;2023-02-16T10:22:42;2.60;99.90
18091;DHT22;9172;49.948;9.208;2023-02-16T10:25:13;2.70;99.90
18091;DHT22;9172;49.948;9.208;2023-02-16T10:27:50;2.80;99.90
18091;DHT22;9172;49.948;9.208;2023-02-16T10:30:21;2.80;99.90
18091;DHT22;9172;49.948;9.208;2023-02-16T10:32:58;2.90;99.90
18091;DHT22;9172;49.948;9.208;2023-02-16T10:38:17;3.10;99.90
18091;DHT22;9172;49.948;9.208;2023-02-16T10:40:51;3.30;99.90
18091;DHT22;9172;49.948;9.208;2023-02-16T10:46:01;3.40;99.90
18091;DHT22;9172;49.948;9.208;2023-02-16T10:48:31;3.50;99.90
18091;DHT22;9172;49.948;9.208;2023-02-16T10:51:04;3.50;99.90
18091;DHT22;9172;49.948;9.208;2023-02-16T10:53:41;3.50;99.90
18091;DHT22;9172;49.948;9.208;2023-02-16T10:59:13;3.70;99.90
18091;DHT22;9172;49.948;9.208;2023-02-16T11:01:44;3.90;99.90
18091;DHT22;9172;49.948;9.208;2023-02-16T11:04:32;4.00;99.90
18091;DHT22;9172;49.948;9.208;2023-02-16T11:07:03;4.30;99.90
18091;DHT22;9172;49.948;9.208;2023-02-16T11:09:32;4.60;99.90
18091;DHT22;9172;49.948;9.208;2023-02-16T11:12:02;4.90;99.90
18091;DHT22;9172;49.948;9.208;2023-02-16T11:14:32;5.10;99.90
18091;DHT22;9172;49.948;9.208;2023-02-16T11:17:09;5.20;99.90
18091;DHT22;9172;49.948;9.208;2023-02-16T11:19:39;5.40;99.90
18091;DHT22;9172;49.948;9.208;2023-02-16T11:22:23;5.50;99.90
18091;DHT22;9172;49.948;9.208;2023-02-16T11:24:51;5.60;99.90
18091;DHT22;9172;49.948;9.208;2023-02-16T11:27:22;5.60;99.90
18091;DHT22;9172;49.948;9.208;2023-02-16T11:30:13;5.60;99.90
18091;DHT22;9172;49.948;9.208;2023-02-16T11:32:40;5.70;99.90
18091;DHT22;9172;49.948;9.208;2023-02-16T11:35:12;5.70;99.90
18091;DHT22;9172;49.948;9.208;2023-02-16T11:37:42;5.70;99.90
18091;DHT22;9172;49.948;9.208;2023-02-16T11:40:21;5.70;99.90
18091;DHT22;9172;49.948;9.208;2023-02-16T11:42:51;5.80;99.90
18091;DHT22;9172;49.948;9.208;2023-02-16T11:45:25;5.90;99.90
18091;DHT22;9172;49.948;9.208;2023-02-16T11:47:56;6.10;99.90
18091;DHT22;9172;49.948;9.208;2023-02-16T11:50:26;6.30;99.90
18091;DHT22;9172;49.948;9.208;2023-02-16T11:52:57;6.40;99.90
18091;DHT22;9172;49.948;9.208;2023-02-16T11:55:29;6.60;99.90
18091;DHT22;9172;49.948;9.208;2023-02-16T11:58:15;6.60;99.90
18091;DHT22;9172;49.948;9.208;2023-02-16T12:00:53;6.70;99.90
18091;DHT22;9172;49.948;9.208;2023-02-16T12:06:29;6.70;99.90
18091;DHT22;9172;49.948;9.208;2023-02-16T12:09:14;6.80;99.90
18091;DHT22;9172;49.948;9.208;2023-02-16T12:11:49;6.90;99.90
18091;DHT22;9172;49.948;9.208;2023-02-16T12:14:25;6.80;99.90
18091;DHT22;9172;49.948;9.208;2023-02-16T12:16:59;6.80;99.90
18091;DHT22;9172;49.948;9.208;2023-02-16T12:19:35;6.80;99.90
18091;DHT22;9172;49.948;9.208;2023-02-16T12:22:13;6.70;99.90
18091;DHT22;9172;49.948;9.208;2023-02-16T12:24:45;6.70;99.90
18091;DHT22;9172;49.948;9.208;2023-02-16T12:27:19;6.70;99.90
18091;DHT22;9172;49.948;9.208;2023-02-16T12:29:53;6.80;99.90
18091;DHT22;9172;49.948;9.208;2023-02-16T12:32:32;6.80;99.90
18091;DHT22;9172;49.948;9.208;2023-02-16T12:35:11;6.80;99.90
18091;DHT22;9172;49.948;9.208;2023-02-16T12:40:23;7.00;99.90
18091;DHT22;9172;49.948;9.208;2023-02-16T12:43:08;7.00;99.90
18091;DHT22;9172;49.948;9.208;2023-02-16T12:45:39;7.10;99.90
18091;DHT22;9172;49.948;9.208;2023-02-16T12:48:16;7.20;99.90
18091;DHT22;9172;49.948;9.208;2023-02-16T12:50:45;7.20;99.90
18091;DHT22;9172;49.948;9.208;2023-02-16T12:53:18;7.30;99.90
18091;DHT22;9172;49.948;9.208;2023-02-16T12:55:51;7.40;99.90
18091;DHT22;9172;49.948;9.208;2023-02-16T13:01:15;7.50;99.90
18091;DHT22;9172;49.948;9.208;2023-02-16T13:06:32;7.50;99.90
18091;DHT22;9172;49.948;9.208;2023-02-16T13:09:09;7.50;99.90
18091;DHT22;9172;49.948;9.208;2023-02-16T13:11:42;7.40;99.90
18091;DHT22;9172;49.948;9.208;2023-02-16T13:16:53;7.40;99.90
18091;DHT22;9172;49.948;9.208;2023-02-16T13:22:16;7.30;99.90
18091;DHT22;9172;49.948;9.208;2023-02-16T13:27:34;7.30;99.90
18091;DHT22;9172;49.948;9.208;2023-02-16T13:30:22;7.40;99.90
18091;DHT22;9172;49.948;9.208;2023-02-16T13:33:11;7.40;99.90
18091;DHT22;9172;49.948;9.208;2023-02-16T13:38:43;7.50;99.90
18091;DHT22;9172;49.948;9.208;2023-02-16T13:44:19;7.50;99.90
18091;DHT22;9172;49.948;9.208;2023-02-16T13:46:50;7.50;99.90
18091;DHT22;9172;49.948;9.208;2023-02-16T13:49:34;7.50;99.90
18091;DHT22;9172;49.948;9.208;2023-02-16T13:52:06;7.50;99.90
18091;DHT22;9172;49.948;9.208;2023-02-16T13:54:39;7.40;99.90
18091;DHT22;9172;49.948;9.208;2023-02-16T13:57:14;7.40;99.90
18091;DHT22;9172;49.948;9.208;2023-02-16T14:02:55;7.50;99.90
18091;DHT22;9172;49.948;9.208;2023-02-16T14:05:27;7.50;99.90
18091;DHT22;9172;49.948;9.208;2023-02-16T14:11:05;7.50;99.90
18091;DHT22;9172;49.948;9.208;2023-02-16T14:13:45;7.60;99.90
18091;DHT22;9172;49.948;9.208;2023-02-16T14:16:27;7.60;99.90
18091;DHT22;9172;49.948;9.208;2023-02-16T14:19:03;7.60;99.90
18091;DHT22;9172;49.948;9.208;2023-02-16T14:21:37;7.60;99.90
18091;DHT22;9172;49.948;9.208;2023-02-16T14:24:10;7.60;99.90
18091;DHT22;9172;49.948;9.208;2023-02-16T14:26:55;7.60;99.90
18091;DHT22;9172;49.948;9.208;2023-02-16T14:29:28;7.60;99.90
18091;DHT22;9172;49.948;9.208;2023-02-16T14:32:05;7.70;99.90
18091;DHT22;9172;49.948;9.208;2023-02-16T14:34:50;7.80;99.90
18091;DHT22;9172;49.948;9.208;2023-02-16T14:37:52;7.90;99.90
18091;DHT22;9172;49.948;9.208;2023-02-16T14:40:38;8.10;99.90
18091;DHT22;9172;49.948;9.208;2023-02-16T14:43:16;8.10;99.90
18091;DHT22;9172;49.948;9.208;2023-02-16T14:46:06;8.10;99.90
18091;DHT22;9172;49.948;9.208;2023-02-16T14:52:15;8.10;99.90
18091;DHT22;9172;49.948;9.208;2023-02-16T14:55:10;8.10;99.90
18091;DHT22;9172;49.948;9.208;2023-02-16T14:57:46;8.10;99.90
18091;DHT22;9172;49.948;9.208;2023-02-16T15:00:23;8.10;99.90
18091;DHT22;9172;49.948;9.208;2023-02-16T15:03:01;8.10;99.90
18091;DHT22;9172;49.948;9.208;2023-02-16T15:05:34;8.10;99.90
18091;DHT22;9172;49.948;9.208;2023-02-16T15:08:10;8.10;99.90
18091;DHT22;9172;49.948;9.208;2023-02-16T15:13:20;8.20;99.90
18091;DHT22;9172;49.948;9.208;2023-02-16T15:15:50;8.30;99.90
18091;DHT22;9172;49.948;9.208;2023-02-16T15:18:23;9.00;99.90
18091;DHT22;9172;49.948;9.208;2023-02-16T15:20:54;8.40;99.90
18091;DHT22;9172;49.948;9.208;2023-02-16T15:23:25;8.40;99.90
18091;DHT22;9172;49.948;9.208;2023-02-16T15:25:57;8.40;99.90
18091;DHT22;9172;49.948;9.208;2023-02-16T15:28:28;8.40;99.90
18091;DHT22;9172;49.948;9.208;2023-02-16T15:30:58;8.50;99.90
18091;DHT22;9172;49.948;9.208;2023-02-16T15:33:32;8.50;99.90
18091;DHT22;9172;49.948;9.208;2023-02-16T15:36:05;8.50;99.90
18091;DHT22;9172;49.948;9.208;2023-02-16T15:38:37;8.50;99.90
18091;DHT22;9172;49.948;9.208;2023-02-16T15:41:07;8.60;99.90
18091;DHT22;9172;49.948;9.208;2023-02-16T15:43:42;8.60;99.90
18091;DHT22;9172;49.948;9.208;2023-02-16T15:48:47;8.70;99.90
18091;DHT22;9172;49.948;9.208;2023-02-16T15:51:20;8.90;99.90
18091;DHT22;9172;49.948;9.208;2023-02-16T15:53:52;8.90;99.90
18091;DHT22;9172;49.948;9.208;2023-02-16T15:56:35;8.80;99.90
18091;DHT22;9172;49.948;9.208;2023-02-16T15:59:15;8.70;99.90
18091;DHT22;9172;49.948;9.208;2023-02-16T16:01:44;8.60;99.90
18091;DHT22;9172;49.948;9.208;2023-02-16T16:04:18;8.50;99.90
18091;DHT22;9172;49.948;9.208;2023-02-16T16:06:49;8.50;99.90
18091;DHT22;9172;49.948;9.208;2023-02-16T16:09:21;8.40;99.90
18091;DHT22;9172;49.948;9.208;2023-02-16T16:11:53;8.40;99.90
18091;DHT22;9172;49.948;9.208;2023-02-16T16:14:24;8.30;99.90
18091;DHT22;9172;49.948;9.208;2023-02-16T16:16:53;8.30;99.90
18091;DHT22;9172;49.948;9.208;2023-02-16T16:19:30;8.20;99.90
18091;DHT22;9172;49.948;9.208;2023-02-16T16:21:55;8.20;99.90
18091;DHT22;9172;49.948;9.208;2023-02-16T16:24:35;8.20;99.90
18091;DHT22;9172;49.948;9.208;2023-02-16T16:27:06;8.30;99.90
18091;DHT22;9172;49.948;9.208;2023-02-16T16:29:38;8.30;99.90
18091;DHT22;9172;49.948;9.208;2023-02-16T16:34:58;8.50;99.90
18091;DHT22;9172;49.948;9.208;2023-02-16T16:37:28;8.40;99.90
18091;DHT22;9172;49.948;9.208;2023-02-16T16:40:01;8.40;99.90
18091;DHT22;9172;49.948;9.208;2023-02-16T16:42:30;8.30;99.90
18091;DHT22;9172;49.948;9.208;2023-02-16T16:45:03;8.30;99.90
18091;DHT22;9172;49.948;9.208;2023-02-16T16:47:35;8.20;99.90
18091;DHT22;9172;49.948;9.208;2023-02-16T16:50:26;8.20;99.90
18091;DHT22;9172;49.948;9.208;2023-02-16T16:52:46;8.20;99.90
18091;DHT22;9172;49.948;9.208;2023-02-16T16:55:27;8.20;99.90
18091;DHT22;9172;49.948;9.208;2023-02-16T16:57:57;8.10;99.90
18091;DHT22;9172;49.948;9.208;2023-02-16T17:00:28;8.10;99.90
18091;DHT22;9172;49.948;9.208;2023-02-16T17:02:58;8.00;99.90
18091;DHT22;9172;49.948;9.208;2023-02-16T17:05:27;8.10;99.90
18091;DHT22;9172;49.948;9.208;2023-02-16T17:07:56;8.10;99.90
18091;DHT22;9172;49.948;9.208;2023-02-16T17:10:25;8.20;99.90
18091;DHT22;9172;49.948;9.208;2023-02-16T17:12:55;8.20;99.90
18091;DHT22;9172;49.948;9.208;2023-02-16T17:15:35;8.30;99.90
18091;DHT22;9172;49.948;9.208;2023-02-16T17:18:05;8.30;99.90
18091;DHT22;9172;49.948;9.208;2023-02-16T17:20:34;8.30;99.90
18091;DHT22;9172;49.948;9.208;2023-02-16T17:23:03;8.30;99.90
18091;DHT22;9172;49.948;9.208;2023-02-16T17:25:33;8.20;99.90
18091;DHT22;9172;49.948;9.208;2023-02-16T17:28:03;8.00;99.90
18091;DHT22;9172;49.948;9.208;2023-02-16T17:30:33;8.10;99.90
18091;DHT22;9172;49.948;9.208;2023-02-16T17:33:02;8.00;99.90
18091;DHT22;9172;49.948;9.208;2023-02-16T17:35:31;8.10;99.90